Time;durP1;ratioP1;P1;durP2;ratioP2;P2;SDS_P1;SDS_P2;PMS_P1;PMS_P2;Temp;Humidity;BMP_temperature;BMP_pressure;BME280_temperature;BME280_humidity;BME280_pressure;Samples;Min_cycle;Max_cycle;Signal;HPM_P1;HPM_P2
2021/05/10 00:01:24;;;;;;;5.25;1.50;;;22.90;46.50;;;;;;4927669;29;20058;-90
2021/05/10 00:03:49;;;;;;;3.63;1.20;;;22.90;46.60;;;;;;4916919;29;20402;-89
2021/05/10 00:06:15;;;;;;;7.15;1.40;;;22.80;46.60;;;;;;4917483;29;20159;-89
2021/05/10 00:08:45;;;;;;;5.30;1.50;;;22.80;46.70;;;;;;4934147;29;20036;-89
2021/05/10 00:11:11;;;;;;;6.35;1.20;;;22.80;46.80;;;;;;4917070;29;20083;-90
2021/05/10 00:13:41;;;;;;;6.45;1.38;;;22.80;46.90;;;;;;4916871;29;20034;-89
2021/05/10 00:16:07;;;;;;;6.38;1.33;;;22.70;47.00;;;;;;4916764;29;20024;-89
2021/05/10 00:18:33;;;;;;;5.35;1.40;;;22.70;47.10;;;;;;4916855;29;20509;-89
2021/05/10 00:20:58;;;;;;;4.78;1.60;;;22.70;47.20;;;;;;4928796;29;20036;-90
2021/05/10 00:23:24;;;;;;;7.80;1.50;;;22.60;47.20;;;;;;4935079;29;20122;-89
2021/05/10 00:25:49;;;;;;;5.80;1.60;;;22.60;47.30;;;;;;4935925;29;20500;-89
2021/05/10 00:28:16;;;;;;;7.10;1.60;;;22.60;47.40;;;;;;4935116;29;20102;-89
2021/05/10 00:30:41;;;;;;;7.07;1.63;;;22.60;47.40;;;;;;4935913;29;20023;-90
2021/05/10 00:33:08;;;;;;;7.20;1.80;;;22.60;47.50;;;;;;4922362;29;20030;-89
2021/05/10 00:35:34;;;;;;;7.55;1.77;;;22.60;47.50;;;;;;4917893;29;20382;-90
2021/05/10 00:37:59;;;;;;;4.93;1.48;;;22.50;47.60;;;;;;4917349;29;20474;-90
2021/05/10 00:40:28;;;;;;;6.13;1.40;;;22.50;47.70;;;;;;4917885;29;20048;-89
2021/05/10 00:42:54;;;;;;;3.00;1.30;;;22.50;47.90;;;;;;4917800;29;20046;-90
2021/05/10 00:45:21;;;;;;;4.28;1.90;;;22.40;47.90;;;;;;4917752;29;20032;-88
2021/05/10 00:47:46;;;;;;;3.92;1.20;;;22.50;48.00;;;;;;4917085;29;20050;-90
2021/05/10 00:50:13;;;;;;;7.28;1.52;;;22.50;48.00;;;;;;4918952;29;20486;-90
2021/05/10 00:52:41;;;;;;;6.00;1.45;;;22.40;48.00;;;;;;4927290;29;20472;-90
2021/05/10 00:55:10;;;;;;;5.50;1.90;;;22.40;48.10;;;;;;4943617;29;20055;-90
2021/05/10 00:57:47;;;;;;;4.85;1.38;;;22.40;48.10;;;;;;4942492;29;20026;-90
2021/05/10 01:00:14;;;;;;;5.50;1.30;;;22.40;48.20;;;;;;4947204;29;20066;-89
2021/05/10 01:02:40;;;;;;;4.95;1.40;;;22.40;48.40;;;;;;4933127;29;20031;-90
2021/05/10 01:05:07;;;;;;;7.85;1.50;;;22.30;48.40;;;;;;4916300;29;20115;-89
2021/05/10 01:07:33;;;;;;;4.35;1.42;;;22.30;48.50;;;;;;4915734;29;20032;-89
2021/05/10 01:10:04;;;;;;;9.05;1.83;;;22.30;48.60;;;;;;4916260;29;20035;-90
2021/05/10 01:12:30;;;;;;;4.70;1.45;;;22.30;48.70;;;;;;4915940;29;20094;-90
2021/05/10 01:14:55;;;;;;;6.47;1.30;;;22.30;48.80;;;;;;4950080;29;20765;-89
2021/05/10 01:17:21;;;;;;;5.90;1.40;;;22.30;48.90;;;;;;4934432;29;20042;-90
2021/05/10 01:19:46;;;;;;;12.82;1.90;;;22.30;48.90;;;;;;4935270;29;20028;-90
2021/05/10 01:22:15;;;;;;;5.00;1.60;;;22.30;49.00;;;;;;4934742;29;20420;-89
2021/05/10 01:24:40;;;;;;;7.53;1.65;;;22.20;49.10;;;;;;4922759;29;20035;-90
2021/05/10 01:27:06;;;;;;;5.10;1.70;;;22.20;49.20;;;;;;4915588;29;20043;-89
2021/05/10 01:29:32;;;;;;;9.38;1.60;;;22.20;49.30;;;;;;4916211;29;20028;-89
2021/05/10 01:31:58;;;;;;;8.88;1.60;;;22.20;49.40;;;;;;4931386;29;20082;-89
2021/05/10 01:34:23;;;;;;;5.30;1.50;;;22.10;49.50;;;;;;4943210;29;20043;-89
2021/05/10 01:36:49;;;;;;;5.90;1.75;;;22.10;49.70;;;;;;4942868;28;20019;-89
2021/05/10 01:39:15;;;;;;;6.68;1.67;;;22.10;49.80;;;;;;4939429;29;20028;-89
2021/05/10 01:41:40;;;;;;;7.28;1.80;;;22.00;49.80;;;;;;4920275;29;20118;-90
2021/05/10 01:44:06;;;;;;;5.82;1.60;;;22.00;50.00;;;;;;4922871;29;20046;-89
2021/05/10 01:46:32;;;;;;;8.10;1.70;;;22.00;50.10;;;;;;4939222;29;20078;-89
2021/05/10 01:48:57;;;;;;;6.45;1.20;;;21.90;50.20;;;;;;4938700;29;20031;-89
2021/05/10 01:51:26;;;;;;;4.07;1.67;;;21.90;50.20;;;;;;4938844;29;20033;-89
2021/05/10 01:53:52;;;;;;;3.65;1.60;;;21.80;50.40;;;;;;4939142;29;20020;-89
2021/05/10 01:56:19;;;;;;;7.15;1.50;;;21.80;50.60;;;;;;4937913;29;20445;-89
2021/05/10 01:58:52;;;;;;;6.03;1.48;;;21.80;50.70;;;;;;4938597;29;20473;-89
2021/05/10 02:01:18;;;;;;;7.60;1.45;;;21.80;50.80;;;;;;4938673;29;20544;-88
2021/05/10 02:03:44;;;;;;;6.38;1.60;;;21.80;50.80;;;;;;4938577;29;20365;-90
2021/05/10 02:06:10;;;;;;;6.40;1.70;;;21.80;50.80;;;;;;4924606;29;20520;-90
2021/05/10 02:08:35;;;;;;;5.68;1.50;;;21.70;50.80;;;;;;4919218;29;20122;-90
2021/05/10 02:11:01;;;;;;;3.90;1.40;;;21.70;50.90;;;;;;4919295;29;20027;-89
2021/05/10 02:13:26;;;;;;;7.85;1.75;;;21.70;50.90;;;;;;4919399;29;20027;-89
2021/05/10 02:15:57;;;;;;;5.90;1.70;;;21.70;50.90;;;;;;4944982;29;20024;-90
2021/05/10 02:18:25;;;;;;;6.85;1.52;;;21.70;50.90;;;;;;4938355;29;20050;-89
2021/05/10 02:20:51;;;;;;;8.77;1.70;;;21.70;50.80;;;;;;4938717;29;20038;-89
2021/05/10 02:23:26;;;;;;;7.10;2.15;;;21.70;50.80;;;;;;4938583;29;20027;-90
2021/05/10 02:25:59;;;;;;;7.53;1.85;;;21.70;50.90;;;;;;4930952;29;20171;-89
2021/05/10 02:28:26;;;;;;;6.18;1.73;;;21.70;50.90;;;;;;4918494;29;20086;-89
2021/05/10 02:30:54;;;;;;;6.13;1.70;;;21.70;51.00;;;;;;4919428;29;20024;-89
2021/05/10 02:33:23;;;;;;;5.37;1.93;;;21.70;51.00;;;;;;4919045;29;20028;-90
2021/05/10 02:35:51;;;;;;;4.28;1.60;;;21.70;50.90;;;;;;4921949;29;20030;-89
2021/05/10 02:38:18;;;;;;;5.88;1.50;;;21.70;50.90;;;;;;4937730;29;20037;-89
2021/05/10 02:40:46;;;;;;;7.07;1.40;;;21.70;50.90;;;;;;4937827;29;20031;-90
2021/05/10 02:43:12;;;;;;;5.43;1.30;;;21.70;50.90;;;;;;4937242;28;20059;-90
2021/05/10 02:45:37;;;;;;;4.45;1.45;;;21.70;50.90;;;;;;4954551;29;20066;-90
2021/05/10 02:48:03;;;;;;;4.57;1.40;;;21.70;50.90;;;;;;4936870;29;20496;-90
2021/05/10 02:50:29;;;;;;;5.50;1.50;;;21.70;50.90;;;;;;4937954;29;20051;-90
2021/05/10 02:52:55;;;;;;;4.65;1.50;;;21.70;50.80;;;;;;4937374;29;20053;-90
2021/05/10 02:55:21;;;;;;;6.47;1.40;;;21.70;50.90;;;;;;4937208;29;20035;-90
2021/05/10 02:57:48;;;;;;;4.63;1.70;;;21.70;51.00;;;;;;4936125;29;20055;-89
2021/05/10 03:00:16;;;;;;;5.63;1.40;;;21.70;51.10;;;;;;4937395;29;20130;-89
2021/05/10 03:02:42;;;;;;;6.45;1.70;;;21.70;51.10;;;;;;4937429;29;20027;-90
2021/05/10 03:05:09;;;;;;;5.30;1.60;;;21.60;51.20;;;;;;4937864;29;20498;-90
2021/05/10 03:07:36;;;;;;;6.43;1.80;;;21.60;51.10;;;;;;4929379;29;20030;-90
2021/05/10 03:10:04;;;;;;;8.40;1.73;;;21.60;51.10;;;;;;4918384;29;20124;-89
2021/05/10 03:12:30;;;;;;;;;;;21.60;51.00;;;;;;4919240;29;20111;-89
2021/05/10 03:14:56;;;;;;;3.88;1.50;;;21.60;51.10;;;;;;4918231;29;19946;-90
2021/05/10 03:17:21;;;;;;;4.22;1.45;;;21.60;51.30;;;;;;4918421;29;20027;-90
2021/05/10 03:19:47;;;;;;;3.15;1.38;;;21.60;51.20;;;;;;4918723;29;20067;-90
2021/05/10 03:22:12;;;;;;;6.93;1.70;;;21.60;51.30;;;;;;4918475;29;20035;-89
2021/05/10 03:24:38;;;;;;;7.63;1.83;;;21.60;51.40;;;;;;4935283;29;20032;-89
2021/05/10 03:27:04;;;;;;;4.97;1.80;;;21.60;51.40;;;;;;4918289;29;20414;-90
2021/05/10 03:29:30;;;;;;;7.18;1.60;;;21.60;51.60;;;;;;4918186;29;20066;-89
2021/05/10 03:31:55;;;;;;;4.82;1.35;;;21.60;51.60;;;;;;4918858;29;20027;-89
2021/05/10 03:34:21;;;;;;;9.02;1.70;;;21.50;51.70;;;;;;4935536;29;20032;-90
2021/05/10 03:36:47;;;;;;;8.65;1.65;;;21.50;51.80;;;;;;4918328;29;20035;-90
2021/05/10 03:39:12;;;;;;;6.78;1.80;;;21.50;51.90;;;;;;4918098;29;20532;-90
2021/05/10 03:41:38;;;;;;;6.40;1.70;;;21.50;52.00;;;;;;4918241;29;20063;-90
2021/05/10 03:44:03;;;;;;;3.03;1.70;;;21.50;52.10;;;;;;4918602;29;20055;-90
2021/05/10 03:46:29;;;;;;;8.15;1.83;;;21.40;52.00;;;;;;4919240;29;20490;-90
2021/05/10 03:48:55;;;;;;;7.63;1.70;;;21.40;52.00;;;;;;4922905;29;20386;-90
2021/05/10 03:51:20;;;;;;;2.55;1.35;;;21.40;52.10;;;;;;4935307;29;20122;-90
2021/05/10 03:53:46;;;;;;;7.65;1.67;;;21.40;52.10;;;;;;4918324;29;20027;-90
2021/05/10 03:56:12;;;;;;;5.70;1.55;;;21.40;52.10;;;;;;4917408;29;20024;-90
2021/05/10 03:58:38;;;;;;;5.00;1.50;;;21.40;52.10;;;;;;4918431;29;20035;-90
2021/05/10 04:01:04;;;;;;;7.53;2.00;;;21.40;52.10;;;;;;4938840;29;20507;-90
2021/05/10 04:03:38;;;;;;;8.10;1.90;;;21.40;52.00;;;;;;4942423;29;20091;-89
2021/05/10 04:09:12;;;;;;;6.63;1.80;;;21.40;52.00;;;;;;4974599;29;20078;-88
2021/05/10 04:14:22;;;;;;;6.15;1.58;;;21.40;52.00;;;;;;4975288;29;20116;-89
2021/05/10 04:16:47;;;;;;;5.82;1.67;;;21.40;52.00;;;;;;4974856;29;20026;-89
2021/05/10 04:19:13;;;;;;;5.90;1.90;;;21.40;51.80;;;;;;4956053;29;20061;-90
2021/05/10 04:21:38;;;;;;;9.98;1.85;;;21.40;51.70;;;;;;4937156;29;20039;-90
2021/05/10 04:24:04;;;;;;;7.75;1.77;;;21.50;51.70;;;;;;4935998;29;20130;-90
2021/05/10 04:26:30;;;;;;;7.68;1.70;;;21.50;51.70;;;;;;4936458;29;20070;-90
2021/05/10 04:28:55;;;;;;;6.80;1.60;;;21.40;51.60;;;;;;4936834;29;20063;-90
2021/05/10 04:31:21;;;;;;;5.68;1.73;;;21.40;51.60;;;;;;4935466;29;20501;-89
2021/05/10 04:33:46;;;;;;;7.35;1.70;;;21.40;51.70;;;;;;4937997;29;20058;-90
2021/05/10 04:36:12;;;;;;;5.55;1.75;;;21.40;51.70;;;;;;4936862;29;20402;-89
2021/05/10 04:38:41;;;;;;;5.15;1.70;;;21.40;51.60;;;;;;4937371;29;20272;-89
2021/05/10 04:41:07;;;;;;;6.40;1.67;;;21.40;51.50;;;;;;4926359;29;20031;-89
2021/05/10 04:43:33;;;;;;;6.35;1.65;;;21.40;51.70;;;;;;4918264;29;20493;-84
2021/05/10 04:46:00;;;;;;;6.88;1.90;;;21.30;51.70;;;;;;4924605;29;20039;-85
2021/05/10 04:48:27;;;;;;;5.70;1.70;;;21.30;51.70;;;;;;4928192;29;20323;-80
2021/05/10 04:50:53;;;;;;;5.13;1.92;;;21.30;51.80;;;;;;4943714;29;20023;-79
2021/05/10 04:53:18;;;;;;;3.65;1.33;;;21.30;51.90;;;;;;4939259;29;20031;-80
2021/05/10 04:55:44;;;;;;;5.93;1.63;;;21.30;51.90;;;;;;4920883;29;20028;-81
2021/05/10 04:58:09;;;;;;;6.75;1.67;;;21.30;51.90;;;;;;4936058;29;20028;-81
2021/05/10 05:00:35;;;;;;;6.30;1.70;;;21.30;52.00;;;;;;4936360;29;20028;-81
2021/05/10 05:03:00;;;;;;;12.50;1.90;;;21.30;52.00;;;;;;4919874;29;20031;-81
2021/05/10 05:05:26;;;;;;;10.25;1.70;;;21.30;52.10;;;;;;4935887;29;20146;-81
2021/05/10 05:07:52;;;;;;;9.88;1.85;;;21.30;52.20;;;;;;4918332;29;20082;-81
2021/05/10 05:10:17;;;;;;;7.53;1.90;;;21.30;52.10;;;;;;4919260;29;20585;-79
2021/05/10 05:12:46;;;;;;;7.82;2.00;;;21.30;52.10;;;;;;4952006;29;20429;-80
2021/05/10 05:15:12;;;;;;;7.95;1.88;;;21.30;52.20;;;;;;4961271;28;20054;-80
2021/05/10 05:17:38;;;;;;;5.47;1.60;;;21.40;52.30;;;;;;4957053;28;20023;-80
2021/05/10 05:20:05;;;;;;;7.25;1.90;;;21.40;52.20;;;;;;4952465;29;20055;-80
2021/05/10 05:22:30;;;;;;;5.75;1.92;;;21.40;52.20;;;;;;4937830;29;20036;-80
2021/05/10 05:24:57;;;;;;;10.30;2.15;;;21.40;52.10;;;;;;4955162;29;20162;-80
2021/05/10 05:27:24;;;;;;;6.30;1.75;;;21.40;52.20;;;;;;4936510;29;20044;-80
2021/05/10 05:29:49;;;;;;;3.97;1.77;;;21.40;52.30;;;;;;4937511;29;20033;-80
2021/05/10 05:32:15;;;;;;;6.30;1.75;;;21.40;52.20;;;;;;4949062;29;20055;-79
2021/05/10 05:34:41;;;;;;;9.88;2.10;;;21.50;52.30;;;;;;4949900;29;20046;-81
2021/05/10 05:37:06;;;;;;;10.38;2.00;;;21.50;52.20;;;;;;4936305;29;20106;-80
2021/05/10 05:39:32;;;;;;;4.28;1.40;;;21.50;52.10;;;;;;4925203;29;20450;-80
2021/05/10 05:41:57;;;;;;;6.55;1.80;;;21.60;52.10;;;;;;4935089;29;20032;-81
2021/05/10 05:44:23;;;;;;;7.03;1.95;;;21.60;52.00;;;;;;4934326;29;20031;-80
2021/05/10 05:46:50;;;;;;;6.13;1.75;;;21.70;51.90;;;;;;4917094;29;20048;-81
2021/05/10 05:49:16;;;;;;;11.48;2.00;;;21.70;51.90;;;;;;4923062;29;20034;-82
2021/05/10 05:51:46;;;;;;;9.98;1.85;;;21.70;51.90;;;;;;4937775;29;20102;-81
2021/05/10 05:54:13;;;;;;;6.40;1.88;;;21.70;51.90;;;;;;4935996;29;20032;-81
2021/05/10 05:56:38;;;;;;;6.18;1.60;;;21.70;51.80;;;;;;4938556;29;20007;-82
2021/05/10 05:59:05;;;;;;;10.70;2.00;;;21.80;51.70;;;;;;4937579;29;20050;-82
2021/05/10 06:01:30;;;;;;;12.52;2.00;;;21.70;51.60;;;;;;4936661;29;20023;-82
2021/05/10 06:03:56;;;;;;;5.63;1.50;;;21.80;51.80;;;;;;4953909;29;20032;-82
2021/05/10 06:06:22;;;;;;;7.43;1.80;;;21.80;52.30;;;;;;4932317;29;20126;-82
2021/05/10 06:08:48;;;;;;;10.88;2.05;;;21.80;51.60;;;;;;4952006;29;20035;-80
2021/05/10 06:11:14;;;;;;;4.40;1.65;;;21.90;51.60;;;;;;4929196;28;20035;-80
2021/05/10 06:13:39;;;;;;;11.00;1.70;;;21.90;51.40;;;;;;4936054;29;20039;-80
2021/05/10 06:16:06;;;;;;;8.25;1.65;;;22.00;51.00;;;;;;4933655;28;20046;-81
2021/05/10 06:18:32;;;;;;;9.77;1.70;;;22.00;50.70;;;;;;4954853;28;20027;-83
2021/05/10 06:21:08;;;;;;;6.78;1.52;;;22.10;50.60;;;;;;4947727;29;20039;-81
2021/05/10 06:23:37;;;;;;;18.27;1.85;;;22.00;50.60;;;;;;4936614;29;20434;-81
2021/05/10 06:26:06;;;;;;;8.60;1.70;;;22.10;50.80;;;;;;4919220;29;20119;-82
2021/05/10 06:28:32;;;;;;;6.63;1.85;;;22.10;50.60;;;;;;4929365;29;20213;-82
2021/05/10 06:30:57;;;;;;;7.30;2.15;;;22.20;50.60;;;;;;4955792;28;20122;-82
2021/05/10 06:33:23;;;;;;;7.03;1.80;;;22.20;50.70;;;;;;4939919;29;20023;-81
2021/05/10 06:35:48;;;;;;;3.55;1.60;;;22.20;50.60;;;;;;4952755;29;20032;-83
2021/05/10 06:38:14;;;;;;;6.70;1.80;;;22.30;50.50;;;;;;4941812;29;20081;-82
2021/05/10 06:40:41;;;;;;;9.48;1.80;;;22.30;50.60;;;;;;4952463;28;20038;-82
2021/05/10 06:43:07;;;;;;;9.85;2.05;;;22.30;50.40;;;;;;4937123;29;20167;-79
2021/05/10 06:45:33;;;;;;;10.35;1.77;;;22.40;50.50;;;;;;4934078;29;20376;-80
2021/05/10 06:47:58;;;;;;;13.85;1.80;;;22.30;50.50;;;;;;4937907;29;20121;-81
2021/05/10 06:50:24;;;;;;;7.38;1.63;;;22.30;50.40;;;;;;4942444;29;20039;-81
2021/05/10 06:52:49;;;;;;;8.70;1.60;;;22.40;50.50;;;;;;4940128;29;20095;-80
2021/05/10 06:55:15;;;;;;;9.80;1.70;;;22.40;50.40;;;;;;4945766;28;20023;-81
2021/05/10 06:57:41;;;;;;;8.63;1.92;;;22.30;50.40;;;;;;4966952;28;20416;-81
2021/05/10 07:00:08;;;;;;;14.32;2.10;;;22.40;50.30;;;;;;4926707;29;20971;-82
2021/05/10 07:02:34;;;;;;;5.55;1.70;;;22.40;50.50;;;;;;4928938;28;20393;-82
2021/05/10 07:05:00;;;;;;;11.20;1.80;;;22.40;50.70;;;;;;4952827;29;20074;-80
2021/05/10 07:07:25;;;;;;;5.47;1.90;;;22.50;50.60;;;;;;4935197;29;20035;-82
2021/05/10 07:09:52;;;;;;;8.32;1.80;;;22.50;50.50;;;;;;4941049;28;20120;-81
2021/05/10 07:12:17;;;;;;;5.63;1.60;;;22.60;50.60;;;;;;4942534;29;20031;-79
2021/05/10 07:14:43;;;;;;;20.65;2.38;;;22.60;50.60;;;;;;4941066;29;20367;-83
2021/05/10 07:17:08;;;;;;;6.28;1.40;;;22.70;50.50;;;;;;4937233;29;20051;-81
2021/05/10 07:19:35;;;;;;;5.72;1.60;;;22.80;50.50;;;;;;4931816;29;20038;-80
2021/05/10 07:22:00;;;;;;;9.82;1.55;;;22.80;50.50;;;;;;4936821;29;20055;-78
2021/05/10 07:24:26;;;;;;;5.18;1.45;;;22.90;51.00;;;;;;4937142;29;20405;-79
2021/05/10 07:26:52;;;;;;;7.30;1.70;;;23.00;50.50;;;;;;4937417;29;20034;-79
2021/05/10 07:29:17;;;;;;;8.43;1.83;;;23.10;50.40;;;;;;4955011;28;20059;-79
2021/05/10 07:31:43;;;;;;;7.75;1.80;;;23.00;50.50;;;;;;4945004;29;20051;-79
2021/05/10 07:34:09;;;;;;;7.63;1.65;;;23.00;51.20;;;;;;4921771;29;20118;-79
2021/05/10 07:36:34;;;;;;;8.77;1.73;;;23.00;50.60;;;;;;4945123;28;20031;-82
2021/05/10 07:39:00;;;;;;;11.52;2.10;;;22.90;50.60;;;;;;4953406;29;20023;-82
2021/05/10 07:41:25;;;;;;;9.02;1.80;;;22.90;50.70;;;;;;4944375;29;20035;-83
2021/05/10 07:43:51;;;;;;;9.43;1.58;;;22.90;51.00;;;;;;4937823;29;20084;-84
2021/05/10 07:46:17;;;;;;;9.00;2.17;;;22.90;51.00;;;;;;4929599;29;20050;-83
2021/05/10 07:48:42;;;;;;;15.25;1.75;;;23.00;51.00;;;;;;4937219;29;20023;-83
2021/05/10 07:51:08;;;;;;;7.45;1.58;;;23.10;51.00;;;;;;4927033;29;20122;-81
2021/05/10 07:53:33;;;;;;;10.00;1.90;;;23.20;50.90;;;;;;4917175;29;20028;-81
2021/05/10 07:56:00;;;;;;;6.20;1.40;;;23.30;50.70;;;;;;4934414;29;20247;-81
2021/05/10 07:58:26;;;;;;;10.02;1.60;;;23.30;50.80;;;;;;4917392;29;20023;-83
2021/05/10 08:01:02;;;;;;;7.22;1.50;;;23.20;50.80;;;;;;4935329;29;20031;-80
2021/05/10 08:03:29;;;;;;;7.45;1.70;;;23.10;51.00;;;;;;4918662;29;20417;-80
2021/05/10 08:05:55;;;;;;;4.20;1.40;;;23.10;50.90;;;;;;4922283;29;20051;-79
2021/05/10 08:08:24;;;;;;;11.60;1.50;;;23.00;51.00;;;;;;4953839;28;20034;-82
2021/05/10 08:10:50;;;;;;;8.07;1.60;;;23.00;51.50;;;;;;4937278;29;20042;-82
2021/05/10 08:13:17;;;;;;;8.23;1.80;;;23.00;51.60;;;;;;4937026;29;20410;-81
2021/05/10 08:15:43;;;;;;;8.80;1.70;;;23.00;51.50;;;;;;4924018;29;20119;-79
2021/05/10 08:18:11;;;;;;;7.18;1.38;;;23.10;51.40;;;;;;4933889;29;20049;-82
2021/05/10 08:20:37;;;;;;;10.50;1.83;;;23.20;51.30;;;;;;4940583;29;20027;-82
2021/05/10 08:23:03;;;;;;;7.20;1.50;;;23.20;51.20;;;;;;4922763;29;20059;-82
2021/05/10 08:25:29;;;;;;;14.18;2.20;;;23.40;51.20;;;;;;4934897;29;20153;-81
2021/05/10 08:27:54;;;;;;;14.23;1.50;;;23.40;51.10;;;;;;4933913;29;20047;-81
2021/05/10 08:30:20;;;;;;;4.45;1.40;;;23.50;51.10;;;;;;4918643;29;20055;-83
2021/05/10 08:32:46;;;;;;;16.80;1.83;;;23.60;50.80;;;;;;4920818;29;20341;-85
2021/05/10 08:35:11;;;;;;;11.82;1.77;;;23.70;50.60;;;;;;4919339;29;20043;-86
2021/05/10 08:37:38;;;;;;;4.53;1.30;;;23.70;50.60;;;;;;4919655;29;20438;-86
2021/05/10 08:40:05;;;;;;;5.90;1.65;;;23.90;50.30;;;;;;4919785;29;20040;-87
2021/05/10 08:42:31;;;;;;;7.78;1.58;;;23.90;50.10;;;;;;4936932;29;20103;-84
2021/05/10 08:44:59;;;;;;;10.27;1.60;;;24.00;50.10;;;;;;4936382;29;20051;-83
2021/05/10 08:47:35;;;;;;;6.65;1.40;;;24.00;49.60;;;;;;4919769;29;20024;-84
2021/05/10 08:50:03;;;;;;;16.10;2.08;;;24.10;49.70;;;;;;4930969;29;20851;-85
2021/05/10 08:52:29;;;;;;;4.80;1.55;;;24.20;49.70;;;;;;4938795;29;20019;-85
2021/05/10 08:54:55;;;;;;;10.60;1.88;;;24.30;49.60;;;;;;4938952;29;20042;-86
2021/05/10 08:57:20;;;;;;;8.15;1.38;;;24.30;49.40;;;;;;4957224;29;20034;-86
2021/05/10 08:59:46;;;;;;;10.88;1.40;;;24.40;49.10;;;;;;4930971;28;20520;-85
2021/05/10 09:02:12;;;;;;;3.80;1.20;;;24.40;49.10;;;;;;4954974;29;20159;-83
2021/05/10 09:04:40;;;;;;;9.88;1.52;;;24.40;48.70;;;;;;4933741;29;20597;-82
2021/05/10 09:07:19;;;;;;;3.92;1.38;;;24.30;48.60;;;;;;4946960;29;20032;-85
2021/05/10 09:09:57;;;;;;;6.88;1.58;;;24.30;48.70;;;;;;4917584;29;20050;-85
2021/05/10 09:12:23;;;;;;;13.48;1.98;;;24.30;48.50;;;;;;4952947;29;20031;-85
2021/05/10 09:14:50;;;;;;;11.82;1.70;;;24.20;48.80;;;;;;4955529;29;20168;-85
2021/05/10 09:17:16;;;;;;;9.98;1.83;;;24.20;48.90;;;;;;4938056;29;20233;-84
2021/05/10 09:19:49;;;;;;;3.40;1.52;;;24.30;48.80;;;;;;4955443;29;20039;-85
2021/05/10 09:22:15;;;;;;;22.73;2.15;;;24.30;48.10;;;;;;4950539;28;20083;-86
2021/05/10 09:24:49;;;;;;;12.10;1.58;;;24.30;48.40;;;;;;4925687;29;20114;-84
2021/05/10 09:27:32;;;;;;;6.55;1.42;;;24.30;48.40;;;;;;4937038;29;20038;-85
2021/05/10 09:30:21;;;;;;;4.47;1.23;;;24.30;47.60;;;;;;4938138;29;20062;-86
2021/05/10 09:32:53;;;;;;;13.68;1.60;;;24.20;48.10;;;;;;4938878;29;20098;-83
2021/05/10 09:35:25;;;;;;;4.50;1.20;;;24.20;48.30;;;;;;4936991;29;20019;-83
2021/05/10 09:38:02;;;;;;;10.38;1.40;;;24.30;48.30;;;;;;4930144;29;20077;-85
2021/05/10 09:40:38;;;;;;;10.82;1.52;;;24.40;47.30;;;;;;4919583;29;20070;-85
2021/05/10 09:43:03;;;;;;;7.10;1.50;;;24.50;48.10;;;;;;4922050;29;20023;-84
2021/05/10 09:45:31;;;;;;;8.57;1.38;;;24.60;47.80;;;;;;4948710;29;20051;-85
2021/05/10 09:48:05;;;;;;;16.25;1.50;;;24.70;47.40;;;;;;4928379;29;20060;-84
2021/05/10 09:50:36;;;;;;;2.88;1.10;;;24.80;47.30;;;;;;4929710;29;20043;-85
2021/05/10 09:53:03;;;;;;;8.60;1.80;;;24.90;46.90;;;;;;4937446;28;20496;-87
2021/05/10 09:55:51;;;;;;;6.78;2.22;;;24.90;47.30;;;;;;4978732;28;20027;-84
2021/05/10 09:58:18;;;;;;;5.60;1.88;;;25.00;46.90;;;;;;4943133;29;20028;-87
2021/05/10 10:00:45;;;;;;;8.75;1.60;;;25.00;46.80;;;;;;4925000;29;20047;-86
2021/05/10 10:03:27;;;;;;;11.98;2.40;;;25.10;46.90;;;;;;4957604;28;20099;-89
2021/05/10 10:05:55;;;;;;;9.30;1.83;;;25.10;46.40;;;;;;4962247;28;20023;-90
2021/05/10 10:08:21;;;;;;;3.92;1.10;;;25.00;46.60;;;;;;4958755;28;20437;-91
2021/05/10 10:10:47;;;;;;;8.77;1.63;;;24.80;46.90;;;;;;4949130;28;20066;-92
2021/05/10 10:13:15;;;;;;;5.05;1.40;;;24.70;47.30;;;;;;4969246;28;20063;-90
2021/05/10 10:15:41;;;;;;;4.63;1.42;;;24.40;47.10;;;;;;4965595;28;20027;-90
2021/05/10 10:18:09;;;;;;;12.70;1.55;;;24.30;47.80;;;;;;4940216;29;20509;-89
2021/05/10 10:20:37;;;;;;;5.18;1.63;;;24.10;48.30;;;;;;4924434;29;20024;-82
2021/05/10 10:23:05;;;;;;;9.23;1.50;;;24.10;48.40;;;;;;4949877;29;20466;-82
2021/05/10 10:25:31;;;;;;;8.60;1.60;;;24.00;48.80;;;;;;4942695;29;20059;-82
2021/05/10 10:27:59;;;;;;;12.85;1.67;;;23.90;49.00;;;;;;4942971;29;20051;-85
2021/05/10 10:30:25;;;;;;;11.73;1.70;;;23.90;48.80;;;;;;4932100;29;20040;-83
2021/05/10 10:32:51;;;;;;;20.52;2.40;;;23.90;49.10;;;;;;4924874;29;20573;-86
2021/05/10 10:35:18;;;;;;;9.75;1.40;;;23.80;49.20;;;;;;4923431;29;20405;-81
2021/05/10 10:37:45;;;;;;;12.85;1.77;;;23.80;49.40;;;;;;4942959;29;20224;-84
2021/05/10 10:40:22;;;;;;;11.02;1.63;;;23.80;49.60;;;;;;4940484;29;20038;-83
2021/05/10 10:42:48;;;;;;;17.38;1.60;;;23.80;50.10;;;;;;4928847;29;20065;-81
2021/05/10 10:45:22;;;;;;;15.77;1.83;;;23.80;50.00;;;;;;4941187;29;20031;-84
2021/05/10 10:47:58;;;;;;;10.52;1.67;;;23.70;49.80;;;;;;4922564;29;20310;-80
2021/05/10 10:50:26;;;;;;;20.50;2.17;;;23.70;49.90;;;;;;4944432;29;20046;-85
2021/05/10 10:52:57;;;;;;;7.45;1.35;;;23.80;50.10;;;;;;4929630;29;20027;-80
2021/05/10 10:55:27;;;;;;;21.65;2.33;;;23.80;50.10;;;;;;4959015;29;20032;-79
2021/05/10 10:57:53;;;;;;;7.88;1.42;;;23.90;49.80;;;;;;4943414;29;20051;-83
2021/05/10 11:00:20;;;;;;;10.20;1.52;;;23.80;49.70;;;;;;4951809;29;20027;-80
2021/05/10 11:02:52;;;;;;;14.50;1.48;;;23.80;49.30;;;;;;4922609;29;20031;-83
2021/05/10 11:05:20;;;;;;;11.27;1.52;;;23.70;49.40;;;;;;4932700;29;20098;-84
2021/05/10 11:08:02;;;;;;;8.85;1.63;;;23.50;49.60;;;;;;4942746;29;20081;-82
2021/05/10 11:10:46;;;;;;;4.75;1.48;;;23.40;49.40;;;;;;4943169;29;20031;-81
2021/05/10 11:13:30;;;;;;;5.30;0.93;;;23.30;49.10;;;;;;4927897;29;20028;-83
2021/05/10 11:16:01;;;;;;;4.68;0.90;;;23.10;49.40;;;;;;4933266;29;20070;-84
2021/05/10 11:18:51;;;;;;;15.48;1.10;;;23.00;50.00;;;;;;4932173;29;20031;-81
2021/05/10 11:21:23;;;;;;;3.72;1.00;;;22.90;50.30;;;;;;4957231;29;20090;-84
2021/05/10 11:23:50;;;;;;;6.38;1.02;;;22.90;50.40;;;;;;4936259;29;20046;-80
2021/05/10 11:26:34;;;;;;;10.13;0.85;;;22.90;50.50;;;;;;4938081;29;20063;-79
2021/05/10 11:29:00;;;;;;;8.45;0.90;;;22.80;50.30;;;;;;4955782;29;20078;-79
2021/05/10 11:31:37;;;;;;;8.60;1.52;;;22.90;50.90;;;;;;4955551;29;20057;-79
2021/05/10 11:34:09;;;;;;;8.73;0.93;;;23.00;50.80;;;;;;4953167;29;20039;-80
2021/05/10 11:36:47;;;;;;;8.77;1.27;;;23.10;50.70;;;;;;4937368;29;20123;-80
2021/05/10 11:39:17;;;;;;;3.10;0.70;;;23.20;50.50;;;;;;4942711;29;20087;-82
2021/05/10 11:41:44;;;;;;;6.18;1.00;;;23.30;50.10;;;;;;4959697;29;20015;-83
2021/05/10 11:44:33;;;;;;;18.38;1.77;;;23.40;50.20;;;;;;4942794;29;20029;-83
2021/05/10 11:47:00;;;;;;;7.88;1.20;;;23.50;50.00;;;;;;4940579;29;20036;-84
2021/05/10 11:49:32;;;;;;;5.47;0.90;;;23.60;49.90;;;;;;4923879;29;20258;-84
2021/05/10 11:52:10;;;;;;;24.63;1.83;;;23.70;50.00;;;;;;4929144;29;20078;-85
2021/05/10 11:54:38;;;;;;;4.95;0.90;;;23.90;49.80;;;;;;4929481;29;20027;-86
2021/05/10 11:57:05;;;;;;;11.85;1.25;;;24.10;49.00;;;;;;4940807;29;20473;-86
2021/05/10 11:59:46;;;;;;;12.45;1.10;;;24.20;49.10;;;;;;4931022;29;20027;-85
2021/05/10 12:02:15;;;;;;;4.65;0.95;;;24.30;49.00;;;;;;4938625;29;20187;-83
2021/05/10 12:04:42;;;;;;;5.53;1.00;;;24.40;48.20;;;;;;4928375;29;20115;-83
2021/05/10 12:07:09;;;;;;;12.30;1.40;;;24.40;48.30;;;;;;4922684;29;20027;-84
2021/05/10 12:09:48;;;;;;;5.75;1.25;;;24.40;48.70;;;;;;4920814;29;20122;-85
2021/05/10 12:12:13;;;;;;;6.95;0.80;;;24.30;48.50;;;;;;4936711;29;20501;-84
2021/05/10 12:14:42;;;;;;;6.43;1.20;;;24.40;48.60;;;;;;4925567;29;20249;-85
2021/05/10 12:17:09;;;;;;;14.10;2.22;;;24.30;48.90;;;;;;4924793;29;20027;-83
2021/05/10 12:19:51;;;;;;;7.50;1.80;;;24.20;49.10;;;;;;4929310;29;20398;-86
2021/05/10 12:22:28;;;;;;;13.00;1.38;;;24.30;49.10;;;;;;4942710;29;20346;-86
2021/05/10 12:24:54;;;;;;;6.03;1.50;;;24.30;48.90;;;;;;4943027;29;20090;-87
2021/05/10 12:27:21;;;;;;;3.95;1.52;;;24.10;48.60;;;;;;4942164;28;20050;-86
2021/05/10 12:29:47;;;;;;;9.35;1.30;;;23.90;49.40;;;;;;4939210;29;20058;-85
2021/05/10 12:32:12;;;;;;;7.05;1.65;;;23.90;49.60;;;;;;4941238;29;20444;-85
2021/05/10 12:34:38;;;;;;;2.70;1.10;;;23.80;49.70;;;;;;4957583;29;20091;-85
2021/05/10 12:37:04;;;;;;;10.00;1.38;;;23.80;50.00;;;;;;4939922;29;20038;-85
2021/05/10 12:39:31;;;;;;;3.70;1.00;;;23.70;50.10;;;;;;4956616;29;20027;-85
2021/05/10 12:42:17;;;;;;;2.92;0.82;;;23.70;50.30;;;;;;4939759;29;20126;-84
2021/05/10 12:44:55;;;;;;;3.63;0.90;;;23.70;50.10;;;;;;4939243;29;20034;-85
2021/05/10 12:47:50;;;;;;;4.05;1.35;;;23.60;50.20;;;;;;4955668;29;20110;-81
2021/05/10 12:50:36;;;;;;;7.53;1.98;;;23.60;50.10;;;;;;4928778;29;20047;-85
2021/05/10 12:53:03;;;;;;;11.20;1.65;;;23.50;50.50;;;;;;4946575;29;20023;-85
2021/05/10 12:55:31;;;;;;;13.88;1.90;;;23.40;50.10;;;;;;4948779;29;20027;-82